Time;durP1;ratioP1;P1;durP2;ratioP2;P2;SDS_P1;SDS_P2;PMS_P1;PMS_P2;Temp;Humidity;BMP_temperature;BMP_pressure;BME280_temperature;BME280_humidity;BME280_pressure;Samples;Min_cycle;Max_cycle;Signal;HPM_P1;HPM_P2
2023/10/29 00:00:03;;;;;;;29.80;27.00;;;;;;;-141.22;100.00;65034.22;5012270;28;20457;-38
2023/10/29 00:02:31;;;;;;;29.93;26.97;;;;;;;-141.22;100.00;65034.22;5020873;28;20432;-38
2023/10/29 00:04:59;;;;;;;28.90;26.20;;;;;;;-141.22;100.00;65034.22;5021205;28;20476;-40
2023/10/29 00:07:28;;;;;;;29.03;26.33;;;;;;;-141.22;100.00;65034.22;5013320;28;21096;-40
2023/10/29 00:09:56;;;;;;;30.53;27.70;;;;;;;-141.22;100.00;65034.22;5019130;28;20461;-40
2023/10/29 00:12:23;;;;;;;32.53;29.23;;;;;;;-141.22;100.00;65034.22;5012227;28;20429;-38
2023/10/29 00:14:51;;;;;;;31.33;28.67;;;;;;;-141.22;100.00;65034.22;5019711;28;20447;-41
2023/10/29 00:17:19;;;;;;;31.00;27.90;;;;;;;-141.22;100.00;65034.22;5028362;28;20983;-40
2023/10/29 00:19:46;;;;;;;35.47;31.87;;;;;;;-141.22;100.00;65034.22;5004143;28;20554;-38
2023/10/29 00:22:14;;;;;;;31.87;28.93;;;;;;;-141.22;100.00;65034.22;5019706;28;20436;-39
2023/10/29 00:24:43;;;;;;;34.20;28.60;;;;;;;-141.22;100.00;65034.22;5012801;28;20528;-40
2023/10/29 00:27:12;;;;;;;31.87;28.80;;;;;;;-141.22;100.00;65034.22;5012243;28;20480;-40
2023/10/29 00:29:41;;;;;;;32.07;29.03;;;;;;;-141.22;100.00;65034.22;5020028;28;20472;-40
2023/10/29 00:32:09;;;;;;;34.50;28.70;;;;;;;-141.22;100.00;65034.22;5012578;28;20540;-40
2023/10/29 00:34:37;;;;;;;29.87;27.13;;;;;;;-141.22;100.00;65034.22;5012392;28;20438;-39
2023/10/29 00:37:05;;;;;;;30.60;28.00;;;;;;;-141.22;100.00;65034.22;5017742;28;20448;-41
2023/10/29 00:39:32;;;;;;;33.33;28.87;;;;;;;-141.22;100.00;65034.22;5013818;28;20461;-41
2023/10/29 00:42:00;;;;;;;31.77;28.57;;;;;;;-141.22;100.00;65034.22;5012177;28;20441;-41
2023/10/29 00:44:28;;;;;;;32.43;29.07;;;;;;;-141.22;100.00;65034.22;5012081;28;20469;-38
2023/10/29 00:46:57;;;;;;;31.07;28.30;;;;;;;-141.22;100.00;65034.22;5020032;28;20480;-40
2023/10/29 00:49:25;;;;;;;30.97;28.33;;;;;;;-141.22;100.00;65034.22;5019897;28;20464;-39
2023/10/29 00:51:54;;;;;;;32.93;29.63;;;;;;;-141.22;100.00;65034.22;5012073;28;20512;-39
2023/10/29 00:54:21;;;;;;;31.43;28.37;;;;;;;-141.22;100.00;65034.22;5011990;28;20488;-40
2023/10/29 00:56:49;;;;;;;32.13;28.93;;;;;;;-141.22;100.00;65034.22;5011817;28;20463;-40
2023/10/29 00:59:18;;;;;;;32.57;29.60;;;;;;;-141.22;100.00;65034.22;5011595;28;20465;-42
2023/10/29 01:01:46;;;;;;;33.00;29.67;;;;;;;-141.22;100.00;65034.22;5020062;28;20440;-39
2023/10/29 01:04:14;;;;;;;31.43;28.03;;;;;;;-141.22;100.00;65034.22;5020321;28;20502;-42
2023/10/29 01:06:44;;;;;;;30.57;27.73;;;;;;;-141.22;100.00;65034.22;5011583;28;20853;-39
2023/10/29 01:09:13;;;;;;;29.93;27.10;;;;;;;-141.22;100.00;65034.22;5011290;28;20497;-38
2023/10/29 01:11:40;;;;;;;29.47;26.97;;;;;;;-141.22;100.00;65034.22;5020011;28;20490;-41
2023/10/29 01:14:08;;;;;;;31.50;28.43;;;;;;;-141.22;100.00;65034.22;5011733;28;20433;-38
2023/10/29 01:16:38;;;;;;;30.20;27.30;;;;;;;-141.22;100.00;65034.22;5029017;28;20975;-39
2023/10/29 01:19:06;;;;;;;29.93;27.23;;;;;;;-141.22;100.00;65034.22;5016727;28;20461;-40
2023/10/29 01:21:34;;;;;;;28.17;25.57;;;;;;;-141.22;100.00;65034.22;5011755;28;20455;-39
2023/10/29 01:24:02;;;;;;;30.47;27.50;;;;;;;-141.22;100.00;65034.22;5018186;28;20466;-38
2023/10/29 01:26:31;;;;;;;30.80;27.87;;;;;;;-141.22;100.00;65034.22;5020384;28;20840;-38
2023/10/29 01:28:59;;;;;;;29.60;27.10;;;;;;;-141.22;100.00;65034.22;5017431;28;20469;-38
2023/10/29 01:31:27;;;;;;;37.63;29.00;;;;;;;-141.22;100.00;65034.22;5017751;28;20497;-38
2023/10/29 01:33:56;;;;;;;30.77;27.93;;;;;;;-141.22;100.00;65034.22;5017947;28;20444;-38
2023/10/29 01:36:23;;;;;;;29.87;26.80;;;;;;;-141.22;100.00;65034.22;5017576;28;20456;-38
2023/10/29 01:38:51;;;;;;;28.50;25.67;;;;;;;-141.22;100.00;65034.22;5022252;28;20484;-38
2023/10/29 01:41:19;;;;;;;29.13;26.40;;;;;;;-141.22;100.00;65034.22;5017818;28;20433;-39
2023/10/29 01:43:46;;;;;;;29.30;26.60;;;;;;;-141.22;100.00;65034.22;5017704;28;20479;-38
2023/10/29 01:46:14;;;;;;;28.70;26.20;;;;;;;-141.22;100.00;65034.22;5017475;28;20486;-38
2023/10/29 01:48:42;;;;;;;29.30;26.70;;;;;;;-141.22;100.00;65034.22;5017103;28;20508;-39
2023/10/29 01:51:11;;;;;;;28.20;25.60;;;;;;;-141.22;100.00;65034.22;5017748;28;21007;-38
2023/10/29 01:53:38;;;;;;;31.20;28.70;;;;;;;-141.22;100.00;65034.22;5017727;28;20920;-39
2023/10/29 01:56:08;;;;;;;29.40;26.63;;;;;;;-141.22;100.00;65034.22;5017451;28;20983;-39
2023/10/29 01:58:36;;;;;;;30.27;27.60;;;;;;;-141.22;100.00;65034.22;5018387;28;20752;-38
2023/10/29 02:01:09;;;;;;;27.80;25.47;;;;;;;-141.22;100.00;65034.22;5029345;28;20436;-38
2023/10/29 02:03:37;;;;;;;28.00;25.40;;;;;;;-141.22;100.00;65034.22;5037778;28;20511;-39
2023/10/29 02:06:05;;;;;;;28.90;26.43;;;;;;;-141.22;100.00;65034.22;5037535;28;20432;-40
2023/10/29 02:08:34;;;;;;;28.77;26.23;;;;;;;-141.22;100.00;65034.22;5036676;28;20478;-39
2023/10/29 02:11:02;;;;;;;28.47;25.93;;;;;;;-141.22;100.00;65034.22;5037543;28;20436;-39
2023/10/29 02:13:29;;;;;;;27.17;24.57;;;;;;;-141.22;100.00;65034.22;5037394;28;20436;-38
2023/10/29 02:15:57;;;;;;;26.80;24.30;;;;;;;-141.22;100.00;65034.22;5036930;28;20442;-40
2023/10/29 02:18:25;;;;;;;28.80;26.23;;;;;;;-141.22;100.00;65034.22;5036769;28;20935;-39
2023/10/29 02:20:53;;;;;;;25.70;23.60;;;;;;;-141.22;100.00;65034.22;5009968;28;20441;-38
2023/10/29 02:23:22;;;;;;;25.80;23.50;;;;;;;-141.22;100.00;65034.22;5017711;28;20520;-38
2023/10/29 02:25:49;;;;;;;27.20;24.87;;;;;;;-141.22;100.00;65034.22;5017405;28;20429;-38
2023/10/29 02:28:17;;;;;;;26.93;24.63;;;;;;;-141.22;100.00;65034.22;5017206;28;20508;-38
2023/10/29 02:30:45;;;;;;;28.10;25.57;;;;;;;-141.22;100.00;65034.22;5017059;28;20497;-38
2023/10/29 02:33:13;;;;;;;28.37;25.93;;;;;;;-141.22;100.00;65034.22;5017811;28;20432;-38
2023/10/29 02:35:40;;;;;;;28.83;25.93;;;;;;;-141.22;100.00;65034.22;5017036;28;20462;-39
2023/10/29 02:38:08;;;;;;;28.20;26.00;;;;;;;-141.22;100.00;65034.22;5028566;28;20449;-38
2023/10/29 02:40:38;;;;;;;28.67;25.93;;;;;;;-141.22;100.00;65034.22;5031106;28;20490;-38
2023/10/29 02:43:06;;;;;;;29.60;26.83;;;;;;;-141.22;100.00;65034.22;5033803;28;20428;-38
2023/10/29 02:45:33;;;;;;;27.03;24.43;;;;;;;-141.22;100.00;65034.22;5034011;28;20868;-39
2023/10/29 02:48:01;;;;;;;29.40;26.70;;;;;;;-141.22;100.00;65034.22;5033470;28;20534;-39
2023/10/29 02:50:29;;;;;;;27.70;24.97;;;;;;;-141.22;100.00;65034.22;5033614;28;20456;-40
2023/10/29 02:52:56;;;;;;;27.63;25.23;;;;;;;-141.22;100.00;65034.22;5006028;28;20440;-38
2023/10/29 02:55:24;;;;;;;29.27;26.63;;;;;;;-141.22;100.00;65034.22;5013835;28;20523;-39
2023/10/29 02:57:53;;;;;;;27.13;24.83;;;;;;;-141.22;100.00;65034.22;5013931;28;20488;-39
2023/10/29 03:00:21;;;;;;;26.77;24.57;;;;;;;-141.22;100.00;65034.22;5013408;28;20488;-38
2023/10/29 03:02:48;;;;;;;26.30;24.20;;;;;;;-141.22;100.00;65034.22;5013930;28;20468;-38
2023/10/29 03:05:16;;;;;;;28.10;25.70;;;;;;;-141.22;100.00;65034.22;5014003;28;20460;-38
2023/10/29 03:07:44;;;;;;;27.33;25.10;;;;;;;-141.22;100.00;65034.22;5013645;28;20808;-38
2023/10/29 03:10:12;;;;;;;26.43;24.37;;;;;;;-141.22;100.00;65034.22;5013418;28;20544;-38
2023/10/29 03:12:40;;;;;;;28.43;25.67;;;;;;;-141.22;100.00;65034.22;5013775;28;20479;-38
2023/10/29 03:15:10;;;;;;;28.00;25.60;;;;;;;-141.22;100.00;65034.22;5013648;28;20932;-38
2023/10/29 03:17:38;;;;;;;29.80;27.43;;;;;;;-141.22;100.00;65034.22;5013460;28;20980;-37
2023/10/29 03:20:07;;;;;;;27.97;25.57;;;;;;;-141.22;100.00;65034.22;5013135;28;20463;-39
2023/10/29 03:22:34;;;;;;;27.67;25.47;;;;;;;-141.22;100.00;65034.22;5012774;28;20433;-37
2023/10/29 03:25:02;;;;;;;28.40;26.00;;;;;;;-141.22;100.00;65034.22;5013738;28;20437;-39
2023/10/29 03:27:30;;;;;;;27.90;25.57;;;;;;;-141.22;100.00;65034.22;5013273;28;20457;-39
2023/10/29 03:29:58;;;;;;;28.40;25.90;;;;;;;-141.22;100.00;65034.22;5012801;28;20524;-38
2023/10/29 03:32:27;;;;;;;26.93;24.47;;;;;;;-141.22;100.00;65034.22;5013382;28;20444;-38
2023/10/29 03:34:55;;;;;;;27.60;25.60;;;;;;;-141.22;100.00;65034.22;5013317;28;20434;-38
2023/10/29 03:37:22;;;;;;;26.17;23.93;;;;;;;-141.22;100.00;65034.22;5027954;28;20483;-38
2023/10/29 03:39:50;;;;;;;27.37;25.17;;;;;;;-141.22;100.00;65034.22;5032587;28;20466;-41
2023/10/29 03:42:18;;;;;;;25.90;23.80;;;;;;;-141.22;100.00;65034.22;5033101;28;20437;-38
2023/10/29 03:44:45;;;;;;;25.83;23.83;;;;;;;-141.22;100.00;65034.22;5032926;28;20535;-38
2023/10/29 03:47:13;;;;;;;26.17;23.93;;;;;;;-141.22;100.00;65034.22;5032233;28;20511;-38
2023/10/29 03:49:44;;;;;;;24.23;22.60;;;;;;;-141.22;100.00;65034.22;5032217;28;20547;-38
2023/10/29 03:52:11;;;;;;;25.83;23.97;;;;;;;-141.22;100.00;65034.22;5032940;28;20528;-38
2023/10/29 03:54:39;;;;;;;26.07;24.20;;;;;;;-141.22;100.00;65034.22;5032745;28;20486;-38
2023/10/29 03:57:07;;;;;;;25.60;23.40;;;;;;;-141.22;100.00;65034.22;5032315;28;20493;-38
2023/10/29 03:59:35;;;;;;;25.40;23.53;;;;;;;-141.22;100.00;65034.22;5031446;28;20931;-38
2023/10/29 04:02:03;;;;;;;25.30;23.23;;;;;;;-141.22;100.00;65034.22;5032138;28;20460;-40
2023/10/29 04:04:32;;;;;;;23.70;22.10;;;;;;;-141.22;100.00;65034.22;5029604;28;20437;-39
2023/10/29 04:07:01;;;;;;;24.53;22.63;;;;;;;-141.22;100.00;65034.22;5021714;28;20946;-38
2023/10/29 04:09:29;;;;;;;24.67;22.90;;;;;;;-141.22;100.00;65034.22;5029474;28;20479;-39
2023/10/29 04:11:59;;;;;;;23.47;21.77;;;;;;;-141.22;100.00;65034.22;5029464;28;20436;-38
2023/10/29 04:14:26;;;;;;;24.13;22.40;;;;;;;-141.22;100.00;65034.22;5029552;28;20472;-41
2023/10/29 04:16:54;;;;;;;22.77;20.80;;;;;;;-141.22;100.00;65034.22;5029178;28;20471;-39
2023/10/29 04:19:22;;;;;;;22.73;21.17;;;;;;;-141.22;100.00;65034.22;5028654;28;20543;-38
2023/10/29 04:21:50;;;;;;;21.93;20.40;;;;;;;-141.22;100.00;65034.22;5032132;28;20432;-38
2023/10/29 04:24:20;;;;;;;23.17;21.67;;;;;;;-141.22;100.00;65034.22;5032134;28;20523;-37
2023/10/29 04:26:47;;;;;;;21.27;19.77;;;;;;;-141.22;100.00;65034.22;5031712;28;20535;-38
2023/10/29 04:29:16;;;;;;;22.10;20.50;;;;;;;-141.22;100.00;65034.22;5031468;28;20467;-38
2023/10/29 04:31:44;;;;;;;22.50;20.80;;;;;;;-141.22;100.00;65034.22;5032211;28;20835;-38
2023/10/29 04:34:13;;;;;;;22.90;21.40;;;;;;;-141.22;100.00;65034.22;5031865;28;20439;-39
2023/10/29 04:36:42;;;;;;;21.57;20.20;;;;;;;-141.22;100.00;65034.22;5027640;28;20465;-38
2023/10/29 04:39:09;;;;;;;22.30;20.80;;;;;;;-141.22;100.00;65034.22;5024806;28;20871;-39
2023/10/29 04:41:38;;;;;;;22.57;21.07;;;;;;;-141.22;100.00;65034.22;5031676;28;20849;-38
2023/10/29 04:44:06;;;;;;;21.00;19.40;;;;;;;-141.22;100.00;65034.22;5032023;28;20863;-40
2023/10/29 04:46:34;;;;;;;22.60;21.00;;;;;;;-141.22;100.00;65034.22;5031303;28;20470;-38
2023/10/29 04:49:02;;;;;;;22.20;20.73;;;;;;;-141.22;100.00;65034.22;5031178;28;20997;-38
2023/10/29 04:51:30;;;;;;;23.50;21.93;;;;;;;-141.22;100.00;65034.22;5031597;28;20535;-38
2023/10/29 04:53:59;;;;;;;23.37;21.90;;;;;;;-141.22;100.00;65034.22;5031306;28;20536;-38
2023/10/29 04:56:27;;;;;;;23.03;21.63;;;;;;;-141.22;100.00;65034.22;5031381;28;20456;-39
2023/10/29 04:58:56;;;;;;;24.00;22.30;;;;;;;-141.22;100.00;65034.22;5030608;28;20456;-39
2023/10/29 05:01:24;;;;;;;23.90;22.37;;;;;;;-141.22;100.00;65034.22;5031667;28;20523;-38
2023/10/29 05:03:52;;;;;;;22.57;21.27;;;;;;;-141.22;100.00;65034.22;5031413;28;20436;-37
2023/10/29 05:06:20;;;;;;;21.80;20.27;;;;;;;-141.22;100.00;65034.22;5031474;28;20453;-37
2023/10/29 05:08:49;;;;;;;23.07;21.57;;;;;;;-141.22;100.00;65034.22;5031023;28;20448;-38
2023/10/29 05:11:17;;;;;;;22.13;20.90;;;;;;;-141.22;100.00;65034.22;5031399;28;20635;-38
2023/10/29 05:13:45;;;;;;;22.50;20.80;;;;;;;-141.22;100.00;65034.22;5031604;28;20442;-38
2023/10/29 05:16:14;;;;;;;21.67;20.40;;;;;;;-141.22;100.00;65034.22;5031419;28;20452;-38
2023/10/29 05:18:42;;;;;;;22.60;21.40;;;;;;;-141.22;100.00;65034.22;5030885;28;20436;-38
2023/10/29 05:21:10;;;;;;;21.23;20.23;;;;;;;-141.22;100.00;65034.22;5031409;28;20428;-38
2023/10/29 05:23:38;;;;;;;22.20;20.83;;;;;;;-141.22;100.00;65034.22;5031230;28;20442;-38
2023/10/29 05:26:06;;;;;;;20.60;19.50;;;;;;;-141.22;100.00;65034.22;5031336;28;20436;-41
2023/10/29 05:28:34;;;;;;;20.00;19.00;;;;;;;-141.22;100.00;65034.22;5030918;28;20436;-38
2023/10/29 05:31:02;;;;;;;20.10;19.10;;;;;;;-141.22;100.00;65034.22;5031364;28;20562;-38
2023/10/29 05:33:32;;;;;;;19.63;18.53;;;;;;;-141.22;100.00;65034.22;5031288;28;20523;-38
2023/10/29 05:35:59;;;;;;;19.60;18.60;;;;;;;-141.22;100.00;65034.22;5027186;28;20861;-38
2023/10/29 05:38:27;;;;;;;18.93;18.10;;;;;;;-141.22;100.00;65034.22;5022604;28;20483;-38
2023/10/29 05:40:55;;;;;;;19.73;18.83;;;;;;;-141.22;100.00;65034.22;5031077;28;20510;-38
2023/10/29 05:43:23;;;;;;;18.97;18.10;;;;;;;-141.22;100.00;65034.22;5031307;28;20435;-38
2023/10/29 05:45:50;;;;;;;20.63;19.53;;;;;;;-141.22;100.00;65034.22;5030828;28;20871;-38
2023/10/29 05:48:18;;;;;;;19.20;18.40;;;;;;;-141.22;100.00;65034.22;5030618;28;20436;-39
2023/10/29 05:50:47;;;;;;;19.23;18.33;;;;;;;-141.22;100.00;65034.22;5013390;28;20546;-38
2023/10/29 05:53:15;;;;;;;18.53;17.73;;;;;;;-141.22;100.00;65034.22;5011401;28;20437;-38
2023/10/29 05:55:42;;;;;;;18.27;17.43;;;;;;;-141.22;100.00;65034.22;5011241;28;20438;-38
2023/10/29 05:58:11;;;;;;;17.67;16.97;;;;;;;-141.22;100.00;65034.22;5011028;28;20523;-38
2023/10/29 06:00:39;;;;;;;17.20;16.40;;;;;;;-141.22;100.00;65034.22;5010890;28;20457;-38
2023/10/29 06:03:07;;;;;;;18.20;17.50;;;;;;;-141.22;100.00;65034.22;5011100;28;20444;-38
2023/10/29 06:05:35;;;;;;;18.03;16.83;;;;;;;-141.22;100.00;65034.22;5011447;28;20472;-40
2023/10/29 06:08:05;;;;;;;16.00;15.30;;;;;;;-141.22;100.00;65034.22;5011094;28;20884;-38
2023/10/29 06:10:33;;;;;;;16.90;16.20;;;;;;;-141.22;100.00;65034.22;5010684;28;20559;-38
2023/10/29 06:13:00;;;;;;;16.70;16.00;;;;;;;-141.22;100.00;65034.22;5014358;28;20439;-38
2023/10/29 06:15:28;;;;;;;16.00;15.30;;;;;;;-141.22;100.00;65034.22;5014542;28;20441;-38
2023/10/29 06:17:56;;;;;;;15.97;15.30;;;;;;;-141.22;100.00;65034.22;5014666;28;20453;-38
2023/10/29 06:20:26;;;;;;;15.70;15.10;;;;;;;-141.22;100.00;65034.22;5014512;28;20460;-38
2023/10/29 06:22:53;;;;;;;15.90;15.30;;;;;;;-141.22;100.00;65034.22;5014796;28;20469;-38
2023/10/29 06:25:22;;;;;;;16.60;15.80;;;;;;;-141.22;100.00;65034.22;5014791;28;20436;-41
2023/10/29 06:27:50;;;;;;;16.17;15.47;;;;;;;-141.22;100.00;65034.22;5014174;28;20989;-38
2023/10/29 06:30:18;;;;;;;16.67;16.03;;;;;;;-141.22;100.00;65034.22;5014098;28;20901;-39
2023/10/29 06:32:46;;;;;;;17.47;16.63;;;;;;;-141.22;100.00;65034.22;5014500;28;20472;-38
2023/10/29 06:35:14;;;;;;;16.43;15.63;;;;;;;-141.22;100.00;65034.22;5014464;28;20523;-40
2023/10/29 06:37:41;;;;;;;16.37;15.67;;;;;;;-141.22;100.00;65034.22;5022544;28;20481;-38
2023/10/29 06:40:10;;;;;;;16.80;16.07;;;;;;;-141.22;100.00;65034.22;5033735;28;20456;-39
2023/10/29 06:42:39;;;;;;;16.70;16.10;;;;;;;-141.22;100.00;65034.22;5033991;28;20452;-38
2023/10/29 06:45:07;;;;;;;16.73;15.93;;;;;;;-141.22;100.00;65034.22;5034052;28;20435;-38
2023/10/29 06:47:35;;;;;;;16.37;15.67;;;;;;;-141.22;100.00;65034.22;5033789;28;21024;-38
2023/10/29 06:50:03;;;;;;;17.03;16.20;;;;;;;-141.22;100.00;65034.22;5033537;28;20547;-38
2023/10/29 06:52:31;;;;;;;18.10;17.17;;;;;;;-141.22;100.00;65034.22;5034002;28;20451;-38
2023/10/29 06:54:59;;;;;;;18.10;17.20;;;;;;;-141.22;100.00;65034.22;5033608;28;20963;-38
2023/10/29 06:57:26;;;;;;;17.63;16.53;;;;;;;-141.22;100.00;65034.22;5033734;28;20460;-38
2023/10/29 06:59:56;;;;;;;17.83;17.03;;;;;;;-141.22;100.00;65034.22;5033509;28;20480;-38
2023/10/29 07:02:24;;;;;;;18.30;17.53;;;;;;;-141.22;100.00;65034.22;5033885;28;20428;-38
2023/10/29 07:04:52;;;;;;;17.83;16.93;;;;;;;-141.22;100.00;65034.22;5033708;28;20923;-38
2023/10/29 07:07:19;;;;;;;18.10;17.20;;;;;;;-141.22;100.00;65034.22;5033369;28;20451;-39
2023/10/29 07:09:47;;;;;;;19.50;18.37;;;;;;;-141.22;100.00;65034.22;5032055;28;20471;-39
2023/10/29 07:12:16;;;;;;;20.17;18.97;;;;;;;-141.22;100.00;65034.22;5012416;28;20554;-38
2023/10/29 07:14:44;;;;;;;20.00;18.10;;;;;;;-141.22;100.00;65034.22;5013787;28;20437;-38
2023/10/29 07:17:14;;;;;;;17.67;16.77;;;;;;;-141.22;100.00;65034.22;5013342;28;20460;-39
2023/10/29 07:19:42;;;;;;;15.40;14.70;;;;;;;-141.22;100.00;65034.22;5013329;28;20457;-38
2023/10/29 07:22:09;;;;;;;15.87;15.10;;;;;;;-141.22;100.00;65034.22;5004871;28;20443;-38
2023/10/29 07:24:37;;;;;;;15.43;14.80;;;;;;;-141.22;100.00;65034.22;5013834;28;20465;-38
2023/10/29 07:27:05;;;;;;;17.20;15.90;;;;;;;-141.22;100.00;65034.22;5013027;28;20506;-38
2023/10/29 07:29:33;;;;;;;17.30;16.40;;;;;;;-141.22;100.00;65034.22;5013211;28;20492;-40
2023/10/29 07:32:00;;;;;;;17.07;16.20;;;;;;;-141.22;100.00;65034.22;5013345;28;20512;-38
2023/10/29 07:34:29;;;;;;;17.80;16.87;;;;;;;-141.22;100.00;65034.22;5013348;28;20437;-38
2023/10/29 07:36:57;;;;;;;16.07;15.17;;;;;;;-141.22;100.00;65034.22;5021073;28;20769;-38
2023/10/29 07:39:25;;;;;;;15.53;14.73;;;;;;;-141.22;100.00;65034.22;5026171;28;20991;-40
2023/10/29 07:41:53;;;;;;;14.80;14.20;;;;;;;-141.22;100.00;65034.22;5032945;28;20424;-38
2023/10/29 07:44:23;;;;;;;15.43;14.70;;;;;;;-141.22;100.00;65034.22;5033091;28;20432;-39
2023/10/29 07:46:52;;;;;;;14.10;13.50;;;;;;;-141.22;100.00;65034.22;5032150;28;20464;-40
2023/10/29 07:49:19;;;;;;;14.40;13.77;;;;;;;-141.22;100.00;65034.22;5032397;28;20460;-38
2023/10/29 07:51:50;;;;;;;15.57;14.80;;;;;;;-141.22;100.00;65034.22;5033046;28;20476;-38
2023/10/29 07:54:18;;;;;;;13.83;13.23;;;;;;;-141.22;100.00;65034.22;5033006;28;20468;-38
2023/10/29 07:56:46;;;;;;;13.00;12.40;;;;;;;-141.22;100.00;65034.22;5032240;28;20459;-39
2023/10/29 07:59:13;;;;;;;12.60;12.20;;;;;;;-141.22;100.00;65034.22;5031910;28;20456;-39
2023/10/29 08:01:43;;;;;;;13.10;12.50;;;;;;;-141.22;100.00;65034.22;5032518;28;20524;-39
2023/10/29 08:04:11;;;;;;;13.13;12.63;;;;;;;-141.22;100.00;65034.22;5032393;28;20440;-39
2023/10/29 08:06:38;;;;;;;13.90;13.30;;;;;;;-141.22;100.00;65034.22;5032173;28;20452;-38
2023/10/29 08:09:08;;;;;;;15.23;14.53;;;;;;;-141.22;100.00;65034.22;5032210;28;20462;-38
2023/10/29 08:11:37;;;;;;;14.17;13.60;;;;;;;-141.22;100.00;65034.22;5032296;28;20999;-38
2023/10/29 08:14:05;;;;;;;14.37;13.77;;;;;;;-141.22;100.00;65034.22;5032128;28;20526;-38
2023/10/29 08:16:33;;;;;;;13.90;13.30;;;;;;;-141.22;100.00;65034.22;5032117;28;20455;-38
2023/10/29 08:19:00;;;;;;;14.53;13.93;;;;;;;-141.22;100.00;65034.22;5031628;28;20959;-38
2023/10/29 08:21:28;;;;;;;14.07;13.47;;;;;;;-141.22;100.00;65034.22;5032370;28;20428;-38
2023/10/29 08:23:56;;;;;;;14.40;13.67;;;;;;;-141.22;100.00;65034.22;5032165;28;20436;-39
2023/10/29 08:26:26;;;;;;;14.93;14.37;;;;;;;-141.22;100.00;65034.22;5032083;28;20982;-39
2023/10/29 08:28:54;;;;;;;14.00;13.37;;;;;;;-141.22;100.00;65034.22;5031672;28;21028;-39
2023/10/29 08:31:22;;;;;;;13.47;12.93;;;;;;;-141.22;100.00;65034.22;5032262;28;20685;-39
2023/10/29 08:33:50;;;;;;;13.60;13.10;;;;;;;-141.22;100.00;65034.22;5031222;28;20428;-39
2023/10/29 08:36:18;;;;;;;14.40;13.53;;;;;;;-141.22;100.00;65034.22;5026896;28;20455;-39
2023/10/29 08:38:46;;;;;;;13.10;12.70;;;;;;;-141.22;100.00;65034.22;5023184;28;20475;-40
2023/10/29 08:41:14;;;;;;;13.70;13.20;;;;;;;-141.22;100.00;65034.22;5004184;28;20852;-39
2023/10/29 08:43:44;;;;;;;13.30;12.70;;;;;;;-141.22;100.00;65034.22;5012245;28;20468;-38
2023/10/29 08:46:12;;;;;;;14.43;13.40;;;;;;;-141.22;100.00;65034.22;5011748;28;20456;-40
2023/10/29 08:48:40;;;;;;;13.97;13.23;;;;;;;-141.22;100.00;65034.22;5011498;28;20433;-40
2023/10/29 08:51:08;;;;;;;14.10;13.50;;;;;;;-141.22;100.00;65034.22;5011989;28;20440;-41
2023/10/29 08:53:36;;;;;;;14.10;13.50;;;;;;;-141.22;100.00;65034.22;5010881;28;21003;-40
2023/10/29 08:56:05;;;;;;;14.60;14.03;;;;;;;-141.22;100.00;65034.22;5013341;28;20441;-40
2023/10/29 08:58:32;;;;;;;13.87;13.20;;;;;;;-141.22;100.00;65034.22;5030002;28;20511;-40
2023/10/29 09:01:07;;;;;;;14.10;13.60;;;;;;;-141.22;100.00;65034.22;5030616;28;20475;-40
2023/10/29 09:03:35;;;;;;;12.90;12.30;;;;;;;-141.22;100.00;65034.22;5030426;28;20505;-39
2023/10/29 09:06:04;;;;;;;12.27;11.77;;;;;;;-141.22;100.00;65034.22;5030489;28;20428;-40
2023/10/29 09:08:33;;;;;;;12.30;11.67;;;;;;;-141.22;100.00;65034.22;5029297;28;20578;-41
2023/10/29 09:11:01;;;;;;;12.80;12.40;;;;;;;-141.22;100.00;65034.22;5030645;28;20508;-40
2023/10/29 09:13:30;;;;;;;12.37;11.97;;;;;;;-141.22;100.00;65034.22;5030313;28;20467;-43
2023/10/29 09:15:58;;;;;;;12.83;12.40;;;;;;;-141.22;100.00;65034.22;5030069;28;20462;-42
2023/10/29 09:18:27;;;;;;;11.77;11.37;;;;;;;-141.22;100.00;65034.22;5029533;28;20495;-41
2023/10/29 09:20:55;;;;;;;12.10;11.50;;;;;;;-141.22;100.00;65034.22;5029949;28;20475;-46
2023/10/29 09:23:23;;;;;;;12.00;11.37;;;;;;;-141.22;100.00;65034.22;5030232;28;20451;-43
2023/10/29 09:25:51;;;;;;;11.47;10.97;;;;;;;-141.22;100.00;65034.22;5030334;28;20520;-39
2023/10/29 09:28:20;;;;;;;12.40;11.90;;;;;;;-141.22;100.00;65034.22;5030324;28;21149;-41
2023/10/29 09:30:48;;;;;;;13.03;12.43;;;;;;;-141.22;100.00;65034.22;5029870;28;20491;-40
2023/10/29 09:33:16;;;;;;;12.40;12.00;;;;;;;-141.22;100.00;65034.22;5002824;28;20480;-42
2023/10/29 09:35:45;;;;;;;12.47;12.10;;;;;;;-141.22;100.00;65034.22;5010922;28;20441;-41
2023/10/29 09:38:15;;;;;;;12.73;12.20;;;;;;;-141.22;100.00;65034.22;5022082;28;20429;-39
2023/10/29 09:40:43;;;;;;;11.93;11.53;;;;;;;-141.22;100.00;65034.22;5029666;28;20464;-44
2023/10/29 09:43:14;;;;;;;10.63;10.23;;;;;;;-141.22;100.00;65034.22;5030266;28;20433;-43
2023/10/29 09:45:45;;;;;;;11.07;10.67;;;;;;;-141.22;100.00;65034.22;5031632;28;20436;-41
2023/10/29 09:48:15;;;;;;;11.30;10.90;;;;;;;-141.22;100.00;65034.22;5033829;28;20467;-41
2023/10/29 09:50:44;;;;;;;10.50;10.20;;;;;;;-141.22;100.00;65034.22;5033778;28;20464;-41
2023/10/29 09:53:15;;;;;;;10.77;10.27;;;;;;;-141.22;100.00;65034.22;5033566;28;20516;-40
2023/10/29 09:55:43;;;;;;;10.73;10.43;;;;;;;-141.22;100.00;65034.22;5034306;28;20436;-42
2023/10/29 09:58:11;;;;;;;12.47;11.73;;;;;;;-141.22;100.00;65034.22;5033279;28;20839;-38
2023/10/29 10:00:40;;;;;;;11.70;11.20;;;;;;;-141.22;100.00;65034.22;5033386;28;20542;-40
2023/10/29 10:03:07;;;;;;;10.90;10.50;;;;;;;-141.22;100.00;65034.22;5033892;28;20770;-41
2023/10/29 10:05:36;;;;;;;12.83;12.00;;;;;;;-141.22;100.00;65034.22;5033956;28;20436;-41
2023/10/29 10:08:04;;;;;;;11.13;10.83;;;;;;;-141.22;100.00;65034.22;5033992;28;20455;-43
2023/10/29 10:10:46;;;;;;;12.50;11.90;;;;;;;-141.22;100.00;65034.22;5033522;28;20515;-40
2023/10/29 10:13:15;;;;;;;12.80;12.10;;;;;;;-141.22;100.00;65034.22;5033706;28;20890;-39
2023/10/29 10:15:43;;;;;;;12.27;11.77;;;;;;;-141.22;100.00;65034.22;5033983;28;20436;-39
2023/10/29 10:18:14;;;;;;;12.20;11.70;;;;;;;-141.22;100.00;65034.22;5033353;28;20455;-41
2023/10/29 10:20:43;;;;;;;11.37;10.97;;;;;;;-141.22;100.00;65034.22;5033162;28;20547;-44
2023/10/29 10:23:11;;;;;;;11.90;11.40;;;;;;;-141.22;100.00;65034.22;5033237;28;20428;-40
2023/10/29 10:25:40;;;;;;;12.10;11.43;;;;;;;-141.22;100.00;65034.22;5034263;28;20439;-40
2023/10/29 10:28:09;;;;;;;13.37;12.33;;;;;;;-141.22;100.00;65034.22;5033097;28;20450;-41
2023/10/29 10:30:38;;;;;;;11.60;11.30;;;;;;;-141.22;100.00;65034.22;5032922;28;21034;-40
2023/10/29 10:33:12;;;;;;;14.17;13.13;;;;;;;-141.22;100.00;65034.22;5033282;28;20471;-45
2023/10/29 10:35:42;;;;;;;13.77;12.50;;;;;;;-141.22;100.00;65034.22;5029304;28;20490;-39
2023/10/29 10:38:10;;;;;;;12.20;11.80;;;;;;;-141.22;100.00;65034.22;5023226;28;20494;-44
2023/10/29 10:40:38;;;;;;;12.13;11.37;;;;;;;-141.22;100.00;65034.22;5033008;28;20858;-43
2023/10/29 10:43:09;;;;;;;11.50;11.13;;;;;;;-141.22;100.00;65034.22;5033474;28;20458;-41
2023/10/29 10:45:37;;;;;;;11.93;11.27;;;;;;;-141.22;100.00;65034.22;5033238;28;20431;-39
2023/10/29 10:48:06;;;;;;;11.57;11.27;;;;;;;-141.22;100.00;65034.22;5032825;28;20894;-41
2023/10/29 10:50:35;;;;;;;12.40;11.80;;;;;;;-141.22;100.00;65034.22;5032317;28;20460;-40
2023/10/29 10:53:04;;;;;;;12.67;12.07;;;;;;;-141.22;100.00;65034.22;5032681;28;20475;-41
2023/10/29 10:55:32;;;;;;;12.23;11.53;;;;;;;-141.22;100.00;65034.22;5015263;28;20947;-39
2023/10/29 10:58:05;;;;;;;12.60;12.00;;;;;;;-141.22;100.00;65034.22;5012311;28;20532;-39